Time;durP1;ratioP1;P1;durP2;ratioP2;P2;SDS_P1;SDS_P2;PMS_P1;PMS_P2;Temp;Humidity;BMP_temperature;BMP_pressure;BME280_temperature;BME280_humidity;BME280_pressure;Samples;Min_cycle;Max_cycle;Signal;HPM_P1;HPM_P2
2023/06/01 00:00:17;;;;;;;;;;;;;;;23.48;44.10;100935.69;103498;1286;62159;-83
2023/06/01 00:02:43;;;;;;;;;;;;;;;23.48;44.06;100935.16;103458;1286;61489;-83
2023/06/01 00:05:08;;;;;;;;;;;;;;;23.48;43.99;100937.67;103431;1286;65632;-83
2023/06/01 00:07:34;;;;;;;;;;;;;;;23.48;44.06;100934.44;103442;1286;62362;-83
2023/06/01 00:10:00;;;;;;;;;;;;;;;23.48;44.13;100935.71;103497;1286;61381;-83
2023/06/01 00:12:26;;;;;;;;;;;;;;;23.48;44.03;100933.93;103409;1286;61764;-82
2023/06/01 00:14:52;;;;;;;;;;;;;;;23.48;44.08;100932.34;103530;1286;61400;-82
2023/06/01 00:17:19;;;;;;;;;;;;;;;23.48;44.10;100927.13;103410;1286;61434;-82
2023/06/01 00:19:45;;;;;;;;;;;;;;;23.48;44.11;100929.61;103541;1286;61391;-82
2023/06/01 00:22:11;;;;;;;;;;;;;;;23.47;44.13;100926.78;103461;1287;62186;-82
2023/06/01 00:24:37;;;;;;;;;;;;;;;23.46;44.19;100928.11;103514;1289;61396;-82
2023/06/01 00:27:03;;;;;;;;;;;;;;;23.46;44.15;100927.73;103513;1286;61394;-83
2023/06/01 00:29:28;;;;;;;;;;;;;;;23.47;44.17;100927.69;103409;1286;61349;-83
2023/06/01 00:31:54;;;;;;;;;;;;;;;23.47;44.15;100931.11;103410;1286;62553;-83
2023/06/01 00:34:20;;;;;;;;;;;;;;;23.47;44.19;100927.36;103466;1286;61282;-82
2023/06/01 00:36:46;;;;;;;;;;;;;;;23.47;44.13;100930.79;103475;1286;62915;-82
2023/06/01 00:39:11;;;;;;;;;;;;;;;23.47;44.17;100930.25;103595;1286;61321;-82
2023/06/01 00:41:37;;;;;;;;;;;;;;;23.47;44.16;100932.92;103307;1286;61496;-82
2023/06/01 00:44:03;;;;;;;;;;;;;;;23.47;44.19;100932.59;103547;1286;61321;-83
2023/06/01 00:46:29;;;;;;;;;;;;;;;23.47;44.19;100934.88;103397;1286;62479;-83
2023/06/01 00:48:55;;;;;;;;;;;;;;;23.47;44.14;100935.59;103810;1291;61323;-83
2023/06/01 00:51:20;;;;;;;;;;;;;;;23.47;44.27;100933.64;103235;1286;62414;-83
2023/06/01 00:53:46;;;;;;;;;;;;;;;23.47;44.25;100935.63;103436;1286;61398;-83
2023/06/01 00:56:12;;;;;;;;;;;;;;;23.46;44.22;100935.30;103290;1286;62609;-83
2023/06/01 00:58:39;;;;;;;;;;;;;;;23.46;44.18;100930.45;103476;1291;64102;-83
2023/06/01 01:01:04;;;;;;;;;;;;;;;23.47;44.17;100929.33;103429;1291;62542;-83
2023/06/01 01:03:31;;;;;;;;;;;;;;;23.46;44.09;100926.86;103459;1287;61352;-83
2023/06/01 01:06:25;;;;;;;;;;;;;;;23.46;44.19;100928.66;103566;1286;61365;-83
2023/06/01 01:08:58;;;;;;;;;;;;;;;23.46;44.19;100925.30;103712;1286;63782;-83
2023/06/01 01:11:23;;;;;;;;;;;;;;;23.46;44.29;100924.33;103493;1286;67262;-83
2023/06/01 01:13:58;;;;;;;;;;;;;;;23.47;44.33;100927.00;103443;1291;61486;-83
2023/06/01 01:16:35;;;;;;;;;;;;;;;23.47;44.31;100923.41;103392;1285;61437;-83
2023/06/01 01:19:24;;;;;;;;;;;;;;;23.47;44.24;100923.27;103448;1291;73326;-83
2023/06/01 01:21:56;;;;;;;;;;;;;;;23.47;44.31;100919.48;103454;1286;65602;-83
2023/06/01 01:24:42;;;;;;;;;;;;;;;23.46;44.28;100917.70;103484;1289;62312;-83
2023/06/01 01:27:29;;;;;;;;;;;;;;;23.46;44.31;100912.86;102783;1294;61658;-83
2023/06/01 01:29:55;;;;;;;;;;;;;;;23.46;44.29;100910.86;102779;1299;73638;-83
2023/06/01 01:32:22;;;;;;;;;;;;;;;23.47;44.35;100909.58;102629;1294;61933;-83
2023/06/01 01:34:47;;;;;;;;;;;;;;;23.47;44.29;100912.96;102602;1294;61491;-83
2023/06/01 01:37:13;;;;;;;;;;;;;;;23.47;44.34;100922.10;102578;1300;61417;-83
2023/06/01 01:39:38;;;;;;;;;;;;;;;23.48;44.25;100925.48;102631;1294;61443;-83
2023/06/01 01:42:05;;;;;;;;;;;;;;;23.48;44.31;100922.09;102700;1294;61566;-82
2023/06/01 01:44:30;;;;;;;;;;;;;;;23.48;44.29;100922.09;103006;1294;75552;-83
2023/06/01 01:46:56;;;;;;;;;;;;;;;23.48;44.37;100920.66;102944;1295;61559;-83
2023/06/01 01:49:25;;;;;;;;;;;;;;;23.47;44.32;100921.25;103129;1294;61454;-83
2023/06/01 01:51:57;;;;;;;;;;;;;;;23.47;44.42;100918.52;102715;1294;72317;-83
2023/06/01 01:54:23;;;;;;;;;;;;;;;23.47;44.35;100921.98;103154;1293;74401;-83
2023/06/01 01:56:49;;;;;;;;;;;;;;;23.47;44.48;100921.61;102859;1295;61574;-83
2023/06/01 01:59:14;;;;;;;;;;;;;;;23.47;44.38;100918.52;102782;1295;61396;-83
2023/06/01 02:01:41;;;;;;;;;;;;;;;23.47;44.41;100918.18;102758;1295;61521;-83
2023/06/01 02:04:07;;;;;;;;;;;;;;;23.47;44.34;100919.23;102781;1286;61764;-83
2023/06/01 02:06:33;;;;;;;;;;;;;;;23.48;44.39;100920.48;103648;1285;61362;-83
2023/06/01 02:08:58;;;;;;;;;;;;;;;23.47;44.34;100921.95;103776;1286;61454;-83
2023/06/01 02:11:24;;;;;;;;;;;;;;;23.48;44.40;100921.19;103967;1285;61476;-82
2023/06/01 02:13:50;;;;;;;;;;;;;;;23.47;44.38;100919.77;104015;1284;63886;-83
2023/06/01 02:16:15;;;;;;;;;;;;;;;23.47;44.42;100921.24;103705;1285;61438;-82
2023/06/01 02:18:45;;;;;;;;;;;;;;;23.48;44.38;100915.98;103752;1286;61365;-82
2023/06/01 02:21:13;;;;;;;;;;;;;;;23.48;44.34;100914.73;104184;1284;61425;-82
2023/06/01 02:23:42;;;;;;;;;;;;;;;23.48;44.50;100915.98;103483;1285;63529;-82
2023/06/01 02:26:08;;;;;;;;;;;;;;;23.48;44.51;100917.17;103606;1285;66548;-82
2023/06/01 02:28:36;;;;;;;;;;;;;;;23.48;44.53;100920.96;103618;1284;62603;-82
2023/06/01 02:31:01;;;;;;;;;;;;;;;23.48;44.50;100921.30;103399;1286;61361;-82
2023/06/01 02:33:27;;;;;;;;;;;;;;;23.48;44.44;100921.51;103581;1286;62426;-82
2023/06/01 02:35:53;;;;;;;;;;;;;;;23.48;44.32;100920.63;103483;1290;61331;-82
2023/06/01 02:38:18;;;;;;;;;;;;;;;23.47;44.53;100916.91;103569;1286;62656;-82
2023/06/01 02:40:44;;;;;;;;;;;;;;;23.47;44.40;100917.62;103647;1286;61429;-82
2023/06/01 02:43:09;;;;;;;;;;;;;;;23.47;44.39;100921.60;103453;1286;61406;-83
2023/06/01 02:45:35;;;;;;;;;;;;;;;23.47;44.33;100922.90;103470;1286;62589;-83
2023/06/01 02:48:00;;;;;;;;;;;;;;;23.47;44.46;100922.71;103450;1286;61493;-83
2023/06/01 02:50:29;;;;;;;;;;;;;;;23.47;44.41;100924.67;103499;1290;61658;-83
2023/06/01 02:52:54;;;;;;;;;;;;;;;23.46;44.32;100925.09;103371;1286;61310;-83
2023/06/01 02:55:20;;;;;;;;;;;;;;;23.46;44.41;100924.36;103492;1291;61375;-82
2023/06/01 02:57:45;;;;;;;;;;;;;;;23.46;44.40;100925.97;103602;1292;61745;-82
2023/06/01 03:00:15;;;;;;;;;;;;;;;23.46;44.48;100924.77;103521;1286;63425;-82
2023/06/01 03:02:44;;;;;;;;;;;;;;;23.46;44.47;100926.94;103403;1287;61391;-83
2023/06/01 03:05:14;;;;;;;;;;;;;;;23.45;44.40;100929.45;103579;1286;61345;-84
2023/06/01 03:07:48;;;;;;;;;;;;;;;23.46;44.46;100934.84;103629;1285;64721;-83
2023/06/01 03:10:14;;;;;;;;;;;;;;;23.46;44.57;100939.47;103483;1286;74462;-83
2023/06/01 03:12:39;;;;;;;;;;;;;;;23.45;44.39;100934.48;103456;1286;61386;-83
2023/06/01 03:15:05;;;;;;;;;;;;;;;23.45;44.47;100933.79;103450;1291;61727;-83
2023/06/01 03:17:31;;;;;;;;;;;;;;;23.45;44.66;100935.04;103666;1286;61406;-83
2023/06/01 03:19:58;;;;;;;;;;;;;;;23.46;44.51;100933.23;103481;1286;61310;-83
2023/06/01 03:22:24;;;;;;;;;;;;;;;23.45;44.55;100930.52;103536;1286;61422;-83
2023/06/01 03:24:50;;;;;;;;;;;;;;;23.45;44.48;100923.55;103521;1286;63048;-83
2023/06/01 03:27:19;;;;;;;;;;;;;;;23.45;44.48;100927.30;103508;1287;61518;-83
2023/06/01 03:29:46;;;;;;;;;;;;;;;23.45;44.44;100930.21;103418;1286;72568;-82
2023/06/01 03:32:11;;;;;;;;;;;;;;;23.46;44.57;100929.09;103532;1286;74474;-82
2023/06/01 03:34:38;;;;;;;;;;;;;;;23.46;44.53;100934.64;103830;1289;61349;-82
2023/06/01 03:37:04;;;;;;;;;;;;;;;23.45;44.53;100933.77;103625;1286;61345;-82
2023/06/01 03:39:33;;;;;;;;;;;;;;;23.46;44.46;100932.86;103472;1290;61387;-82
2023/06/01 03:41:59;;;;;;;;;;;;;;;23.45;44.52;100930.53;103498;1286;75397;-82
2023/06/01 03:44:25;;;;;;;;;;;;;;;23.46;44.54;100929.80;103490;1286;62554;-83
2023/06/01 03:46:51;;;;;;;;;;;;;;;23.46;44.50;100930.52;103552;1287;61352;-83
2023/06/01 03:49:16;;;;;;;;;;;;;;;23.46;44.51;100930.88;103520;1287;61442;-83
2023/06/01 03:51:42;;;;;;;;;;;;;;;23.46;44.52;100926.91;103455;1291;61336;-82
2023/06/01 03:54:07;;;;;;;;;;;;;;;23.46;44.48;100927.11;103709;1286;61317;-83
2023/06/01 03:56:33;;;;;;;;;;;;;;;23.45;44.56;100928.91;103537;1286;61388;-82
2023/06/01 03:59:00;;;;;;;;;;;;;;;23.46;44.48;100933.04;103507;1285;61399;-83
2023/06/01 04:01:29;;;;;;;;;;;;;;;23.46;44.40;100932.27;103540;1287;61445;-83
2023/06/01 04:03:55;;;;;;;;;;;;;;;23.46;44.45;100937.83;103496;1287;75445;-83
2023/06/01 04:06:21;;;;;;;;;;;;;;;23.47;44.58;100940.14;103728;1287;61297;-83
2023/06/01 04:08:55;;;;;;;;;;;;;;;23.47;44.57;100942.45;103451;1286;62977;-82
2023/06/01 04:11:22;;;;;;;;;;;;;;;23.46;44.62;100943.55;103650;1286;63846;-83
2023/06/01 04:13:47;;;;;;;;;;;;;;;23.46;44.53;100946.27;103540;1285;62446;-83
2023/06/01 04:16:15;;;;;;;;;;;;;;;23.46;44.46;100946.42;103473;1286;62078;-83
2023/06/01 04:18:40;;;;;;;;;;;;;;;23.47;44.60;100941.38;103436;1286;61458;-83
2023/06/01 04:21:07;;;;;;;;;;;;;;;23.47;44.62;100942.48;103394;1291;61295;-82
2023/06/01 04:23:56;;;;;;;;;;;;;;;23.47;44.49;100942.28;103590;1292;62495;-82
2023/06/01 04:26:21;;;;;;;;;;;;;;;23.47;44.64;100942.98;102933;1291;61371;-82
2023/06/01 04:28:48;;;;;;;;;;;;;;;23.48;44.55;100943.45;102875;1292;61733;-82
2023/06/01 04:31:16;;;;;;;;;;;;;;;23.48;44.59;100943.80;102978;1292;61337;-82
2023/06/01 04:33:44;;;;;;;;;;;;;;;23.48;44.66;100942.92;103033;1292;75046;-83
2023/06/01 04:36:13;;;;;;;;;;;;;;;23.47;44.61;100944.91;102909;1292;61480;-82
2023/06/01 04:38:42;;;;;;;;;;;;;;;23.48;44.65;100953.28;102896;1292;61365;-82
2023/06/01 04:41:10;;;;;;;;;;;;;;;23.48;44.67;100956.50;103106;1297;63840;-83
2023/06/01 04:43:36;;;;;;;;;;;;;;;23.48;44.70;100962.09;103022;1292;74399;-82
2023/06/01 04:46:04;;;;;;;;;;;;;;;23.48;44.59;100964.79;102958;1292;61324;-83
2023/06/01 04:48:31;;;;;;;;;;;;;;;23.49;44.61;100966.55;102872;1292;61407;-82
2023/06/01 04:50:58;;;;;;;;;;;;;;;23.49;44.59;100967.05;102912;1292;72709;-83
2023/06/01 04:53:24;;;;;;;;;;;;;;;23.49;44.63;100969.05;102977;1292;66752;-82
2023/06/01 04:55:50;;;;;;;;;;;;;;;23.49;44.68;100973.33;102828;1293;61523;-82
2023/06/01 04:58:15;;;;;;;;;;;;;;;23.49;44.69;100977.66;102864;1292;61480;-82
2023/06/01 05:00:41;;;;;;;;;;;;;;;23.49;44.63;100981.57;103019;1297;62342;-82
2023/06/01 05:03:07;;;;;;;;;;;;;;;23.49;44.66;100985.02;103060;1297;61342;-82
2023/06/01 05:05:32;;;;;;;;;;;;;;;23.49;44.69;100985.35;103534;1287;61374;-82
2023/06/01 05:07:58;;;;;;;;;;;;;;;23.49;44.61;100984.80;103498;1286;62173;-82
2023/06/01 05:10:24;;;;;;;;;;;;;;;23.50;44.61;100981.55;103783;1286;62628;-83
2023/06/01 05:12:49;;;;;;;;;;;;;;;23.50;44.67;100977.60;103521;1287;61371;-82
2023/06/01 05:15:16;;;;;;;;;;;;;;;23.50;44.71;100982.27;103406;1286;62367;-82
2023/06/01 05:17:42;;;;;;;;;;;;;;;23.50;44.80;100978.48;103515;1286;62493;-82
2023/06/01 05:20:08;;;;;;;;;;;;;;;23.50;44.64;100978.49;103726;1286;61346;-82
2023/06/01 05:22:34;;;;;;;;;;;;;;;23.50;44.72;100979.52;103534;1286;61453;-82
2023/06/01 05:25:00;;;;;;;;;;;;;;;23.50;44.78;100982.41;103456;1291;61436;-82
2023/06/01 05:27:26;;;;;;;;;;;;;;;23.50;44.78;100984.77;103523;1290;75306;-83
2023/06/01 05:29:51;;;;;;;;;;;;;;;23.50;44.74;100986.39;103555;1286;61474;-82
2023/06/01 05:32:17;;;;;;;;;;;;;;;23.50;44.60;100986.38;103480;1285;61524;-82
2023/06/01 05:34:42;;;;;;;;;;;;;;;23.51;44.68;100987.77;103521;1292;61528;-83
2023/06/01 05:37:09;;;;;;;;;;;;;;;23.51;44.59;100991.70;103733;1286;61384;-82
2023/06/01 05:39:34;;;;;;;;;;;;;;;23.51;44.69;100994.05;103503;1286;61483;-83
2023/06/01 05:42:01;;;;;;;;;;;;;;;23.51;44.69;100997.10;103543;1286;62415;-82
2023/06/01 05:44:26;;;;;;;;;;;;;;;23.51;44.65;100997.80;103514;1286;61375;-82
2023/06/01 05:46:52;;;;;;;;;;;;;;;23.51;44.68;101003.00;103689;1287;61369;-82
2023/06/01 05:49:18;;;;;;;;;;;;;;;23.51;44.70;101006.24;103406;1285;62356;-82
2023/06/01 05:51:46;;;;;;;;;;;;;;;23.51;44.60;101011.43;103584;1286;61431;-82
2023/06/01 05:54:11;;;;;;;;;;;;;;;23.51;44.87;101014.32;103833;1289;62496;-82
2023/06/01 05:56:37;;;;;;;;;;;;;;;23.51;44.75;101017.38;103473;1286;61337;-83
2023/06/01 05:59:02;;;;;;;;;;;;;;;23.51;44.80;101016.27;103519;1284;61983;-83
2023/06/01 06:01:28;;;;;;;;;;;;;;;23.51;44.82;101015.00;103603;1287;66745;-82
2023/06/01 06:03:55;;;;;;;;;;;;;;;23.52;44.72;101020.38;103588;1286;61390;-83
2023/06/01 06:06:22;;;;;;;;;;;;;;;23.51;44.81;101021.11;103496;1286;61444;-83
2023/06/01 06:08:47;;;;;;;;;;;;;;;23.52;44.69;101019.66;103498;1286;61339;-83
2023/06/01 06:11:13;;;;;;;;;;;;;;;23.52;44.64;101018.59;103611;1286;62284;-82
2023/06/01 06:13:38;;;;;;;;;;;;;;;23.51;44.79;101017.88;103538;1286;61470;-82
2023/06/01 06:16:04;;;;;;;;;;;;;;;23.52;44.65;101018.20;103511;1286;63045;-82
2023/06/01 06:18:29;;;;;;;;;;;;;;;23.51;44.63;101016.63;103522;1289;61864;-83
2023/06/01 06:20:55;;;;;;;;;;;;;;;23.52;44.74;101019.30;103832;1286;62945;-82
2023/06/01 06:23:22;;;;;;;;;;;;;;;23.52;44.77;101019.81;103518;1286;61317;-81
2023/06/01 06:25:48;;;;;;;;;;;;;;;23.52;44.76;101024.49;103571;1286;61314;-81
2023/06/01 06:28:15;;;;;;;;;;;;;;;23.52;44.78;101021.63;103555;1286;61379;-81
2023/06/01 06:30:40;;;;;;;;;;;;;;;23.52;44.78;101027.34;103414;1286;61484;-82
2023/06/01 06:33:07;;;;;;;;;;;;;;;23.51;44.68;101028.83;103498;1289;61591;-83
2023/06/01 06:35:32;;;;;;;;;;;;;;;23.52;44.79;101027.19;103600;1287;62414;-83
2023/06/01 06:37:59;;;;;;;;;;;;;;;23.52;44.70;101027.36;103536;1289;61330;-83
2023/06/01 06:40:24;;;;;;;;;;;;;;;23.52;44.85;101030.96;103407;1286;61440;-82
2023/06/01 06:42:50;;;;;;;;;;;;;;;23.52;44.70;101035.27;103410;1286;61386;-82
2023/06/01 06:45:16;;;;;;;;;;;;;;;23.52;44.84;101037.23;103610;1285;74449;-82
2023/06/01 06:47:41;;;;;;;;;;;;;;;23.52;44.79;101041.02;103407;1291;62643;-82
2023/06/01 06:50:07;;;;;;;;;;;;;;;23.52;44.83;101043.73;103484;1286;61343;-82
2023/06/01 06:52:33;;;;;;;;;;;;;;;23.51;44.74;101046.11;103412;1291;61678;-83
2023/06/01 06:54:58;;;;;;;;;;;;;;;23.51;44.73;101048.08;103629;1286;62525;-83
2023/06/01 06:57:24;;;;;;;;;;;;;;;23.51;44.85;101048.27;103528;1287;61374;-82
2023/06/01 06:59:49;;;;;;;;;;;;;;;23.51;44.78;101050.60;103406;1286;61272;-82
2023/06/01 07:02:15;;;;;;;;;;;;;;;23.51;44.77;101048.44;103709;1287;62540;-82
2023/06/01 07:04:41;;;;;;;;;;;;;;;23.51;44.90;101051.67;103598;1286;61448;-83
2023/06/01 07:07:07;;;;;;;;;;;;;;;23.50;44.78;101050.48;103501;1287;62022;-82
2023/06/01 07:09:33;;;;;;;;;;;;;;;23.50;44.84;101054.59;102823;1290;759346;-82
2023/06/01 07:11:58;;;;;;;;;;;;;;;23.50;44.85;101056.62;103566;1286;61352;-82
2023/06/01 07:14:24;;;;;;;;;;;;;;;23.50;44.80;101054.81;103669;1286;61297;-82
2023/06/01 07:16:50;;;;;;;;;;;;;;;23.50;44.84;101060.73;103494;1286;61370;-82
2023/06/01 07:19:16;;;;;;;;;;;;;;;23.50;44.81;101065.91;103452;1286;62433;-82
2023/06/01 07:21:42;;;;;;;;;;;;;;;23.50;44.84;101066.27;103612;1291;61407;-82
2023/06/01 07:24:08;;;;;;;;;;;;;;;23.50;44.95;101072.20;103421;1286;61394;-82
2023/06/01 07:26:33;;;;;;;;;;;;;;;23.50;44.82;101073.48;103465;1292;61390;-82
2023/06/01 07:29:00;;;;;;;;;;;;;;;23.51;44.90;101072.92;103357;1286;62500;-82
2023/06/01 07:31:27;;;;;;;;;;;;;;;23.50;44.90;101075.63;103543;1286;61470;-82
2023/06/01 07:33:53;;;;;;;;;;;;;;;23.50;44.87;101076.55;103823;1289;61269;-82
2023/06/01 07:36:23;;;;;;;;;;;;;;;23.50;44.91;101076.91;103588;1286;62486;-82
2023/06/01 07:38:51;;;;;;;;;;;;;;;23.51;44.94;101079.58;103608;1287;72449;-83
2023/06/01 07:41:18;;;;;;;;;;;;;;;23.51;44.88;101083.69;103484;1291;75262;-82
2023/06/01 07:43:44;;;;;;;;;;;;;;;23.50;45.06;101080.12;103663;1286;61374;-82
2023/06/01 07:46:09;;;;;;;;;;;;;;;23.50;44.81;101077.96;103388;1289;61378;-82
2023/06/01 07:48:38;;;;;;;;;;;;;;;23.50;44.86;101081.73;103588;1287;61255;-83
2023/06/01 07:51:03;;;;;;;;;;;;;;;23.51;44.95;101078.30;103485;1286;75475;-83
2023/06/01 07:53:29;;;;;;;;;;;;;;;23.51;44.89;101078.28;103678;1287;61505;-83
2023/06/01 07:55:55;;;;;;;;;;;;;;;23.51;44.84;101074.90;103556;1286;61416;-83
2023/06/01 07:58:20;;;;;;;;;;;;;;;23.51;44.89;101074.49;103547;1289;61416;-83
2023/06/01 08:00:46;;;;;;;;;;;;;;;23.51;44.92;101070.73;103491;1292;62009;-83
2023/06/01 08:03:12;;;;;;;;;;;;;;;23.52;44.99;101071.58;103532;1291;61467;-83
2023/06/01 08:05:41;;;;;;;;;;;;;;;23.51;44.92;101069.98;103844;1286;63482;-83
2023/06/01 08:08:06;;;;;;;;;;;;;;;23.52;44.98;101072.10;103696;1286;61332;-83
2023/06/01 08:10:32;;;;;;;;;;;;;;;23.52;45.02;101071.72;103697;1286;62042;-83
2023/06/01 08:12:57;;;;;;;;;;;;;;;23.53;44.97;101071.64;103492;1286;61452;-83
2023/06/01 08:15:25;;;;;;;;;;;;;;;23.54;45.04;101072.48;103441;1288;61999;-83
2023/06/01 08:17:51;;;;;;;;;;;;;;;23.54;45.06;101072.97;103493;1286;61401;-83
2023/06/01 08:20:21;;;;;;;;;;;;;;;23.54;44.95;101073.31;103434;1288;62374;-83
2023/06/01 08:22:47;;;;;;;;;;;;;;;23.54;45.00;101069.20;103470;1286;74400;-83
2023/06/01 08:25:14;;;;;;;;;;;;;;;23.55;44.99;101069.52;103372;1289;62635;-83
2023/06/01 08:27:40;;;;;;;;;;;;;;;23.55;45.04;101069.34;104267;1286;61333;-83
2023/06/01 08:30:06;;;;;;;;;;;;;;;23.55;44.95;101070.36;103656;1291;61996;-83
2023/06/01 08:32:32;;;;;;;;;;;;;;;23.56;45.07;101070.70;103360;1295;61451;-83
2023/06/01 08:34:58;;;;;;;;;;;;;;;23.56;44.98;101073.20;103523;1286;61410;-83
2023/06/01 08:37:24;;;;;;;;;;;;;;;23.56;44.98;101071.21;103676;1286;61394;-83
2023/06/01 08:39:50;;;;;;;;;;;;;;;23.57;44.98;101071.16;103386;1286;62732;-83
2023/06/01 08:42:19;;;;;;;;;;;;;;;23.57;45.04;101070.98;103448;1286;61394;-83
2023/06/01 08:44:45;;;;;;;;;;;;;;;23.57;44.96;101070.26;103435;1290;61374;-83
2023/06/01 08:47:11;;;;;;;;;;;;;;;23.57;45.01;101069.33;103434;1286;61391;-83
2023/06/01 08:49:37;;;;;;;;;;;;;;;23.57;45.04;101066.45;103445;1286;61321;-83
2023/06/01 08:52:04;;;;;;;;;;;;;;;23.57;45.02;101066.48;103405;1289;61510;-83
2023/06/01 08:54:30;;;;;;;;;;;;;;;23.57;45.07;101068.27;103504;1286;61419;-83
2023/06/01 08:56:58;;;;;;;;;;;;;;;23.57;45.05;101068.11;103543;1288;62028;-83
2023/06/01 08:59:24;;;;;;;;;;;;;;;23.57;45.02;101070.09;103598;1289;61364;-83
2023/06/01 09:01:50;;;;;;;;;;;;;;;23.56;44.92;101068.34;103476;1290;61365;-83
2023/06/01 09:04:15;;;;;;;;;;;;;;;23.57;44.99;101070.99;103502;1292;61756;-83
2023/06/01 09:06:44;;;;;;;;;;;;;;;23.56;45.12;101067.98;103552;1286;61429;-83
2023/06/01 09:09:12;;;;;;;;;;;;;;;23.56;45.04;101069.40;103533;1289;61387;-83
2023/06/01 09:11:38;;;;;;;;;;;;;;;23.56;45.03;101064.60;103470;1288;74391;-83
2023/06/01 09:14:23;;;;;;;;;;;;;;;23.56;45.00;101065.30;103472;1290;61850;-83
2023/06/01 09:16:51;;;;;;;;;;;;;;;23.56;45.06;101070.67;103586;1290;62467;-83
2023/06/01 09:19:18;;;;;;;;;;;;;;;23.55;45.03;101060.48;103458;1288;73345;-83
2023/06/01 09:21:57;;;;;;;;;;;;;;;23.56;44.98;101060.65;103352;1291;75750;-82
2023/06/01 09:24:23;;;;;;;;;;;;;;;23.55;45.07;101056.36;103514;1286;61950;-82
2023/06/01 09:26:49;;;;;;;;;;;;;;;23.56;45.03;101060.10;103560;1286;61403;-82
2023/06/01 09:29:16;;;;;;;;;;;;;;;23.56;45.15;101063.89;103494;1291;62503;-82
2023/06/01 09:31:44;;;;;;;;;;;;;;;23.55;45.14;101061.77;103484;1291;61426;-82
2023/06/01 09:34:18;;;;;;;;;;;;;;;23.55;45.01;101060.52;103891;1286;61397;-83
2023/06/01 09:36:44;;;;;;;;;;;;;;;23.55;45.08;101060.51;103475;1286;61777;-83
2023/06/01 09:39:11;;;;;;;;;;;;;;;23.56;45.08;101060.11;103245;1295;61384;-83
2023/06/01 09:41:44;;;;;;;;;;;;;;;23.55;45.07;101062.84;103370;1286;74512;-83
2023/06/01 09:44:09;;;;;;;;;;;;;;;23.55;45.19;101065.53;103186;1286;61377;-83
2023/06/01 09:46:46;;;;;;;;;;;;;;;23.55;45.09;101064.26;103576;1286;61313;-83
2023/06/01 09:49:11;;;;;;;;;;;;;;;23.55;45.06;101065.52;103468;1291;73941;-83
2023/06/01 09:51:37;;;;;;;;;;;;;;;23.56;45.11;101065.52;103389;1291;61335;-83
2023/06/01 09:54:03;;;;;;;;;;;;;;;23.56;45.05;101065.14;103400;1288;62516;-83
2023/06/01 09:56:28;;;;;;;;;;;;;;;23.56;45.13;101065.31;103346;1286;61310;-83
2023/06/01 09:58:58;;;;;;;;;;;;;;;23.56;45.17;101066.19;103502;1291;61562;-83
2023/06/01 10:01:24;;;;;;;;;;;;;;;23.56;45.13;101062.96;103324;1286;74703;-83
2023/06/01 10:03:52;;;;;;;;;;;;;;;23.56;45.13;101062.25;103481;1291;61375;-83
2023/06/01 10:06:18;;;;;;;;;;;;;;;23.56;45.12;101061.91;103240;1293;61321;-83
2023/06/01 10:08:43;;;;;;;;;;;;;;;23.55;45.20;101060.30;103301;1294;62557;-83
2023/06/01 10:11:09;;;;;;;;;;;;;;;23.56;45.10;101061.54;103458;1291;61298;-83
2023/06/01 10:13:35;;;;;;;;;;;;;;;23.56;45.18;101060.08;103471;1286;61545;-83
2023/06/01 10:16:01;;;;;;;;;;;;;;;23.56;45.11;101054.52;103462;1286;61298;-83
2023/06/01 10:18:26;;;;;;;;;;;;;;;23.56;45.15;101055.39;103412;1294;61431;-83
2023/06/01 10:20:52;;;;;;;;;;;;;;;23.56;45.26;101056.12;103459;1291;61370;-83
2023/06/01 10:23:20;;;;;;;;;;;;;;;23.56;45.23;101054.15;103306;1287;72402;-83
2023/06/01 10:25:47;;;;;;;;;;;;;;;23.57;45.27;101048.19;103434;1291;61384;-83
2023/06/01 10:28:13;;;;;;;;;;;;;;;23.57;45.14;101040.64;103579;1286;62557;-83
2023/06/01 10:30:38;;;;;;;;;;;;;;;23.56;45.16;101039.23;103264;1289;61591;-83
2023/06/01 10:33:04;;;;;;;;;;;;;;;23.56;45.11;101037.24;103275;1286;61516;-83
2023/06/01 10:35:30;;;;;;;;;;;;;;;23.57;45.23;101038.82;103380;1286;62446;-82
2023/06/01 10:38:14;;;;;;;;;;;;;;;23.57;45.14;101032.36;103531;1291;61743;-82
2023/06/01 10:40:40;;;;;;;;;;;;;;;23.57;45.18;101028.59;103467;1291;61405;-83
2023/06/01 10:43:08;;;;;;;;;;;;;;;23.57;45.21;101026.97;103360;1291;61400;-83
2023/06/01 10:45:40;;;;;;;;;;;;;;;23.57;45.15;101020.84;103386;1286;65885;-83
2023/06/01 10:48:12;;;;;;;;;;;;;;;23.57;45.19;101020.48;103487;1287;61369;-83
2023/06/01 10:50:41;;;;;;;;;;;;;;;23.57;45.25;101015.81;103414;1291;61298;-83
2023/06/01 10:53:25;;;;;;;;;;;;;;;23.57;45.28;101013.98;102939;1292;63868;-83
2023/06/01 10:56:16;;;;;;;;;;;;;;;23.57;45.27;101012.73;103095;1290;66915;-83
2023/06/01 10:58:41;;;;;;;;;;;;;;;23.57;45.31;101005.54;102893;1293;62006;-84
2023/06/01 11:01:07;;;;;;;;;;;;;;;23.58;45.34;101003.34;102889;1292;62485;-82
2023/06/01 11:03:42;;;;;;;;;;;;;;;23.58;45.30;100998.34;102965;1296;61410;-82
2023/06/01 11:06:22;;;;;;;;;;;;;;;23.58;45.32;100995.98;102915;1294;65717;-82
2023/06/01 11:08:50;;;;;;;;;;;;;;;23.58;45.27;100996.84;102969;1292;61834;-82
2023/06/01 11:11:16;;;;;;;;;;;;;;;23.58;45.31;100995.23;103007;1292;61402;-83
2023/06/01 11:13:42;;;;;;;;;;;;;;;23.59;45.34;100993.20;102988;1293;61570;-83
2023/06/01 11:16:09;;;;;;;;;;;;;;;23.59;45.25;100992.09;102909;1295;61512;-83
2023/06/01 11:18:41;;;;;;;;;;;;;;;23.60;45.32;100986.67;102975;1294;62075;-84
2023/06/01 11:21:10;;;;;;;;;;;;;;;23.60;45.29;100982.48;103116;1294;61269;-84
2023/06/01 11:23:36;;;;;;;;;;;;;;;23.62;45.26;100982.41;102931;1291;64799;-84
2023/06/01 11:26:03;;;;;;;;;;;;;;;23.62;45.38;100978.23;103399;1286;75325;-83
2023/06/01 11:28:29;;;;;;;;;;;;;;;23.63;45.30;100975.83;103281;1289;61403;-83
2023/06/01 11:30:54;;;;;;;;;;;;;;;23.63;45.30;100966.84;103411;1291;62571;-83
2023/06/01 11:33:20;;;;;;;;;;;;;;;23.64;45.39;100966.44;103308;1286;61481;-83
2023/06/01 11:35:46;;;;;;;;;;;;;;;23.64;45.35;100962.10;103265;1294;61466;-83
2023/06/01 11:38:12;;;;;;;;;;;;;;;23.65;45.29;100964.92;103477;1291;61467;-83
2023/06/01 11:40:37;;;;;;;;;;;;;;;23.65;45.28;100956.08;103383;1292;61473;-83
2023/06/01 11:43:03;;;;;;;;;;;;;;;23.66;45.27;100953.88;103415;1292;62088;-83
2023/06/01 11:45:29;;;;;;;;;;;;;;;23.66;45.28;100946.52;103269;1292;61403;-83
2023/06/01 11:47:54;;;;;;;;;;;;;;;23.67;45.26;100942.13;103414;1291;61384;-84
2023/06/01 11:50:21;;;;;;;;;;;;;;;23.67;45.19;100937.98;103459;1286;61729;-84
2023/06/01 11:52:47;;;;;;;;;;;;;;;23.68;45.22;100934.31;103449;1287;61327;-82
2023/06/01 11:55:14;;;;;;;;;;;;;;;23.68;45.22;100932.33;103346;1291;61949;-82
2023/06/01 11:57:42;;;;;;;;;;;;;;;23.68;45.30;100929.61;103314;1286;61395;-82
2023/06/01 12:00:14;;;;;;;;;;;;;;;23.69;45.21;100924.51;103339;1290;62164;-82
2023/06/01 12:02:41;;;;;;;;;;;;;;;23.69;45.33;100922.33;103498;1292;62020;-82
2023/06/01 12:05:08;;;;;;;;;;;;;;;23.70;45.31;100913.30;103404;1291;64578;-82
2023/06/01 12:07:53;;;;;;;;;;;;;;;23.70;45.16;100906.26;103446;1291;61323;-82
2023/06/01 12:10:20;;;;;;;;;;;;;;;23.71;45.16;100904.91;103559;1286;61388;-82
2023/06/01 12:12:45;;;;;;;;;;;;;;;23.72;45.25;100899.30;103409;1286;61383;-82
2023/06/01 12:15:11;;;;;;;;;;;;;;;23.72;45.27;100896.21;103289;1295;61413;-82
2023/06/01 12:17:50;;;;;;;;;;;;;;;23.72;45.28;100889.00;103546;1292;61383;-83
2023/06/01 12:20:36;;;;;;;;;;;;;;;23.73;45.14;100884.85;103447;1291;61378;-83
2023/06/01 12:23:28;;;;;;;;;;;;;;;23.74;45.20;100881.90;103443;1286;61781;-82
2023/06/01 12:25:55;;;;;;;;;;;;;;;23.74;45.13;100875.41;103411;1291;64957;-82